createdAt,value
2023-03-02T00:01:15.741Z,12.67
2023-03-02T00:04:21.859Z,12.87
2023-03-02T00:07:28.735Z,14.23
2023-03-02T00:10:32.164Z,12.93
2023-03-02T00:13:38.005Z,12.10
2023-03-02T00:16:41.644Z,11.03
2023-03-02T00:19:44.858Z,10.40
2023-03-02T00:22:48.255Z,13.43
2023-03-02T00:25:51.183Z,12.60
2023-03-02T00:28:55.484Z,10.60
2023-03-02T00:31:58.455Z,11.27
2023-03-02T00:35:01.443Z,11.60
2023-03-02T00:38:04.364Z,11.33
2023-03-02T00:41:07.288Z,8.10
2023-03-02T00:44:17.665Z,9.07
2023-03-02T00:47:20.823Z,8.70
2023-03-02T00:50:24.208Z,8.13
2023-03-02T00:53:27.217Z,9.10
2023-03-02T00:56:30.979Z,8.23
2023-03-02T00:59:37.564Z,8.93
2023-03-02T01:02:43.966Z,9.00
2023-03-02T01:05:47.599Z,9.23
2023-03-02T01:08:50.528Z,10.40
2023-03-02T01:11:53.719Z,8.33
2023-03-02T01:14:57.958Z,9.07
2023-03-02T01:18:01.480Z,12.17
2023-03-02T01:21:05.631Z,9.87
2023-03-02T01:24:09.531Z,8.67
2023-03-02T01:27:12.940Z,8.77
2023-03-02T01:30:17.404Z,7.90
2023-03-02T01:33:21.235Z,8.43
2023-03-02T01:36:25.079Z,7.20
2023-03-02T01:39:28.045Z,8.87
2023-03-02T01:42:35.725Z,8.33
2023-03-02T01:45:54.808Z,7.87
2023-03-02T01:49:01.533Z,10.33
2023-03-02T01:52:04.973Z,7.73
2023-03-02T01:55:13.426Z,9.10
2023-03-02T01:58:17.766Z,7.90
2023-03-02T02:01:22.712Z,8.40
2023-03-02T02:04:27.973Z,8.27
2023-03-02T02:07:30.984Z,9.13
2023-03-02T02:10:35.117Z,10.43
2023-03-02T02:13:38.114Z,9.40
2023-03-02T02:16:42.626Z,7.67
2023-03-02T02:20:08.880Z,7.47
2023-03-02T02:23:25.624Z,8.13
2023-03-02T02:26:35.566Z,8.40
2023-03-02T02:29:45.538Z,8.63
2023-03-02T02:32:50.580Z,7.80
2023-03-02T02:35:56.534Z,6.43
2023-03-02T02:39:03.469Z,7.17
2023-03-02T02:42:13.891Z,8.80
2023-03-02T02:45:23.312Z,6.70
2023-03-02T02:48:30.963Z,7.47
2023-03-02T02:51:34.463Z,6.37
2023-03-02T02:54:38.431Z,6.90
2023-03-02T02:57:43.228Z,7.33
2023-03-02T03:00:46.252Z,7.03
2023-03-02T03:03:53.745Z,8.00
2023-03-02T03:06:58.990Z,7.27
2023-03-02T03:10:08.480Z,8.40
2023-03-02T03:13:13.731Z,8.63
2023-03-02T03:16:18.692Z,9.13
2023-03-02T03:19:24.427Z,10.70
2023-03-02T03:22:27.401Z,9.87
2023-03-02T03:25:32.040Z,10.80
2023-03-02T03:28:36.693Z,8.77
2023-03-02T03:31:40.025Z,7.60
2023-03-02T03:34:42.990Z,9.40
2023-03-02T03:37:48.395Z,7.83
2023-03-02T03:40:51.366Z,7.57
2023-03-02T03:43:55.835Z,8.27
2023-03-02T03:46:59.074Z,8.57
2023-03-02T03:50:01.978Z,7.90
2023-03-02T03:53:04.903Z,6.80
2023-03-02T03:56:08.619Z,8.97
2023-03-02T03:59:15.704Z,9.63
2023-03-02T04:02:19.121Z,9.03
2023-03-02T04:05:22.151Z,8.87
2023-03-02T04:08:25.069Z,8.40
2023-03-02T04:11:27.965Z,8.80
2023-03-02T04:14:32.307Z,8.83
2023-03-02T04:17:35.374Z,7.53
2023-03-02T04:20:38.330Z,8.27
2023-03-02T04:23:41.248Z,8.20
2023-03-02T04:26:44.972Z,8.23
2023-03-02T04:29:49.286Z,8.47
2023-03-02T04:32:52.361Z,11.73
2023-03-02T04:35:55.484Z,9.23
2023-03-02T04:38:58.386Z,10.20
2023-03-02T04:42:01.436Z,10.10
2023-03-02T04:45:06.586Z,10.67
2023-03-02T04:48:09.604Z,10.80
2023-03-02T04:51:18.333Z,11.10
2023-03-02T04:54:23.291Z,9.70
2023-03-02T04:57:26.352Z,8.13
2023-03-02T05:00:33.943Z,10.40
2023-03-02T05:03:36.935Z,9.37
2023-03-02T05:06:40.379Z,9.40
2023-03-02T05:09:43.360Z,11.30
2023-03-02T05:12:57.789Z,9.97
2023-03-02T05:16:02.166Z,10.17
2023-03-02T05:19:06.679Z,9.43
2023-03-02T05:22:09.644Z,9.20
2023-03-02T05:25:13.388Z,10.23
2023-03-02T05:28:16.299Z,10.40
2023-03-02T05:31:28.380Z,9.90
2023-03-02T05:34:31.369Z,11.07
2023-03-02T05:37:34.306Z,8.90
2023-03-02T05:40:37.593Z,11.90
2023-03-02T05:43:40.607Z,8.47
2023-03-02T05:46:44.915Z,10.90
2023-03-02T05:49:47.883Z,8.73
2023-03-02T05:52:51.298Z,10.83
2023-03-02T05:55:54.838Z,9.80
2023-03-02T05:58:57.746Z,11.77
2023-03-02T06:02:02.510Z,10.70
2023-03-02T06:05:06.156Z,10.67
2023-03-02T06:08:09.170Z,13.30
2023-03-02T06:11:12.582Z,8.17
2023-03-02T06:14:15.794Z,12.33
2023-03-02T06:17:20.075Z,11.53
2023-03-02T06:20:23.143Z,11.70
2023-03-02T06:23:26.294Z,11.63
2023-03-02T06:26:29.195Z,11.67
2023-03-02T06:29:32.119Z,11.90
2023-03-02T06:32:36.637Z,13.27
2023-03-02T06:35:39.638Z,13.70
2023-03-02T06:38:42.776Z,13.90
2023-03-02T06:41:47.361Z,12.67
2023-03-02T06:44:51.643Z,11.30
2023-03-02T06:47:56.202Z,13.37
2023-03-02T06:50:59.112Z,14.23
2023-03-02T06:54:02.258Z,12.93
2023-03-02T06:57:05.388Z,13.73
2023-03-02T07:00:14.132Z,14.23
2023-03-02T07:03:18.561Z,13.50
2023-03-02T07:06:21.522Z,12.23
2023-03-02T07:09:24.829Z,12.57
2023-03-02T07:12:27.797Z,13.10
2023-03-02T07:15:30.720Z,15.47
2023-03-02T07:18:34.978Z,12.40
2023-03-02T07:21:37.980Z,13.87
2023-03-02T07:24:40.900Z,15.63
2023-03-02T07:27:44.024Z,16.10
2023-03-02T07:30:46.982Z,16.00
2023-03-02T07:33:51.319Z,13.33
2023-03-02T07:36:54.482Z,13.43
2023-03-02T07:40:00.285Z,17.00
2023-03-02T07:43:04.028Z,13.67
2023-03-02T07:46:07.436Z,14.13
2023-03-02T07:49:11.716Z,13.17
2023-03-02T07:52:14.641Z,13.77
2023-03-02T07:55:17.719Z,15.97
2023-03-02T07:58:21.381Z,14.53
2023-03-02T08:01:24.442Z,15.03
2023-03-02T08:04:28.743Z,16.57
2023-03-02T08:07:31.650Z,14.90
2023-03-02T08:10:35.273Z,12.97
2023-03-02T08:13:38.825Z,13.57
2023-03-02T08:16:41.945Z,14.63
2023-03-02T08:19:46.704Z,15.07
2023-03-02T08:22:49.670Z,16.07
2023-03-02T08:25:54.359Z,14.27
2023-03-02T08:28:57.417Z,16.03
2023-03-02T08:32:00.587Z,14.90
2023-03-02T08:35:05.625Z,13.93
2023-03-02T08:38:08.564Z,17.07
2023-03-02T08:41:13.435Z,13.67
2023-03-02T08:44:17.601Z,14.07
2023-03-02T08:47:20.572Z,15.93
2023-03-02T08:50:24.891Z,12.90
2023-03-02T08:53:29.202Z,12.10
2023-03-02T08:56:34.959Z,14.43
2023-03-02T08:59:38.133Z,12.83
2023-03-02T09:02:41.175Z,12.40
2023-03-02T09:05:45.663Z,13.53
2023-03-02T09:08:49.256Z,14.10
2023-03-02T09:11:52.164Z,14.43
2023-03-02T09:14:55.089Z,12.70
2023-03-02T09:17:58.492Z,13.70
2023-03-02T09:21:02.910Z,13.70
2023-03-02T09:24:06.347Z,15.47
2023-03-02T09:27:09.474Z,14.13
2023-03-02T09:30:14.070Z,15.30
2023-03-02T09:33:17.220Z,18.90
2023-03-02T09:36:26.251Z,13.97
2023-03-02T09:39:29.495Z,12.87
2023-03-02T09:43:12.753Z,12.00
2023-03-02T09:46:24.037Z,12.40
2023-03-02T09:49:35.020Z,11.57
2023-03-02T09:52:42.003Z,13.57
2023-03-02T09:55:48.791Z,13.43
2023-03-02T09:58:59.054Z,14.47
2023-03-02T10:02:07.533Z,12.40
2023-03-02T10:05:17.275Z,13.00
2023-03-02T10:08:24.103Z,12.27
2023-03-02T10:11:38.167Z,13.33
2023-03-02T10:14:49.320Z,11.50
2023-03-02T10:18:00.604Z,11.03
2023-03-02T10:21:07.661Z,13.50
2023-03-02T10:24:21.925Z,16.60
2023-03-02T10:27:29.106Z,15.93
2023-03-02T10:30:36.118Z,11.27
2023-03-02T10:33:41.900Z,13.90
2023-03-02T10:36:47.621Z,12.63
2023-03-02T10:39:51.985Z,12.97
2023-03-02T10:42:56.131Z,11.13
2023-03-02T10:46:00.987Z,12.07
2023-03-02T10:49:03.960Z,11.20
2023-03-02T10:52:13.717Z,11.23
2023-03-02T10:55:18.578Z,13.13
2023-03-02T10:58:26.838Z,12.30
2023-03-02T11:01:30.935Z,16.67
2023-03-02T11:04:34.048Z,14.30
2023-03-02T11:07:37.523Z,11.07
2023-03-02T11:10:51.905Z,14.23
2023-03-02T11:13:56.343Z,12.07
2023-03-02T11:17:03.301Z,13.47
2023-03-02T11:20:16.682Z,11.70
2023-03-02T11:23:26.193Z,12.07
2023-03-02T11:26:35.669Z,11.20
2023-03-02T11:29:42.647Z,8.80
2023-03-02T11:32:53.838Z,9.20
2023-03-02T11:36:00.062Z,10.50
2023-03-02T11:39:09.086Z,11.30
2023-03-02T11:42:20.809Z,8.77
2023-03-02T11:45:27.174Z,9.10
2023-03-02T11:48:34.518Z,8.40
2023-03-02T11:51:47.382Z,12.90
2023-03-02T11:55:04.342Z,10.80
2023-03-02T11:58:13.170Z,8.10
2023-03-02T12:01:21.224Z,10.10
2023-03-02T12:04:32.197Z,9.40
2023-03-02T12:07:35.852Z,10.30
2023-03-02T12:10:41.850Z,9.53
2023-03-02T12:13:47.379Z,10.27
2023-03-02T12:16:50.918Z,11.50
2023-03-02T12:19:55.979Z,9.83
2023-03-02T12:23:10.626Z,11.27
2023-03-02T12:26:27.836Z,9.50
2023-03-02T12:29:41.644Z,8.20
2023-03-02T12:32:47.277Z,8.53
2023-03-02T12:35:57.074Z,10.23
2023-03-02T12:39:16.211Z,10.23
2023-03-02T12:42:39.777Z,9.20
2023-03-02T12:45:59.322Z,9.30
2023-03-02T12:49:12.830Z,10.00
2023-03-02T12:52:28.759Z,10.87
2023-03-02T12:55:32.827Z,10.40
2023-03-02T12:58:35.897Z,10.07
2023-03-02T13:01:40.403Z,11.23
2023-03-02T13:04:43.599Z,12.17
2023-03-02T13:07:55.634Z,11.10
2023-03-02T13:11:01.291Z,9.70
2023-03-02T13:14:19.861Z,10.60
2023-03-02T13:17:27.167Z,10.30
2023-03-02T13:20:31.316Z,8.77
2023-03-02T13:23:35.225Z,9.20
2023-03-02T13:26:39.791Z,8.90
2023-03-02T13:29:42.754Z,7.93
2023-03-02T13:32:47.002Z,5.73
2023-03-02T13:35:50.125Z,8.10
2023-03-02T13:38:56.005Z,7.93
2023-03-02T13:42:01.232Z,10.03
2023-03-02T13:45:22.107Z,9.37
2023-03-02T13:48:27.710Z,8.30
2023-03-02T13:51:33.477Z,7.60
2023-03-02T13:54:38.341Z,8.53
2023-03-02T13:57:41.661Z,8.43
2023-03-02T14:00:45.158Z,8.87
2023-03-02T14:03:49.464Z,7.27
2023-03-02T14:06:53.127Z,6.10
2023-03-02T14:09:57.594Z,6.37
2023-03-02T14:13:05.120Z,7.30
2023-03-02T14:16:11.135Z,8.10
2023-03-02T14:19:16.306Z,6.57
2023-03-02T14:22:20.019Z,7.00
2023-03-02T14:25:23.116Z,7.23
2023-03-02T14:28:29.364Z,7.10
2023-03-02T14:31:32.683Z,5.20
2023-03-02T14:34:37.420Z,4.67
2023-03-02T14:37:43.645Z,4.47
2023-03-02T14:40:46.616Z,7.40
2023-03-02T14:43:50.044Z,7.43
2023-03-02T14:46:53.848Z,5.00
2023-03-02T14:49:58.714Z,5.03
2023-03-02T14:53:01.692Z,8.17
2023-03-02T14:56:06.847Z,6.53
2023-03-02T14:59:13.263Z,6.30
2023-03-02T15:02:25.211Z,6.57
2023-03-02T15:05:31.964Z,6.10
2023-03-02T15:08:34.942Z,5.77
2023-03-02T15:11:37.889Z,5.87
2023-03-02T15:14:41.225Z,5.27
2023-03-02T15:17:44.233Z,8.00
2023-03-02T15:20:48.563Z,9.10
2023-03-02T15:23:51.892Z,6.23
2023-03-02T15:26:54.899Z,5.93
2023-03-02T15:29:57.816Z,5.83
2023-03-02T15:33:00.774Z,4.93
2023-03-02T15:36:06.331Z,9.00
2023-03-02T15:39:13.687Z,5.90
2023-03-02T15:42:16.647Z,8.07
2023-03-02T15:45:19.737Z,6.83
2023-03-02T15:48:22.736Z,5.87
2023-03-02T15:51:27.112Z,6.20
2023-03-02T15:54:30.240Z,6.13
2023-03-02T15:57:38.012Z,6.10
2023-03-02T16:00:40.978Z,6.30
2023-03-02T16:03:45.280Z,6.77
2023-03-02T16:06:50.011Z,7.47
2023-03-02T16:09:53.170Z,7.27
2023-03-02T16:12:56.087Z,7.20
2023-03-02T16:16:01.712Z,7.53
2023-03-02T16:19:04.638Z,7.20
2023-03-02T16:22:08.906Z,5.63
2023-03-02T16:25:11.967Z,6.77
2023-03-02T16:28:15.918Z,8.73
2023-03-02T16:31:20.742Z,5.83
2023-03-02T16:34:23.801Z,6.67
2023-03-02T16:37:28.229Z,5.77
2023-03-02T16:40:31.179Z,8.80
2023-03-02T16:43:34.096Z,6.70
2023-03-02T16:46:41.795Z,8.27
2023-03-02T16:49:44.869Z,6.77
2023-03-02T16:52:49.177Z,8.70
2023-03-02T16:55:52.195Z,7.43
2023-03-02T16:58:55.719Z,7.77
2023-03-02T17:01:58.826Z,7.93
2023-03-02T17:05:01.933Z,6.83
2023-03-02T17:08:10.027Z,7.53
2023-03-02T17:11:13.156Z,10.67
2023-03-02T17:14:16.159Z,9.57
2023-03-02T17:17:19.173Z,9.73
2023-03-02T17:20:22.682Z,10.10
2023-03-02T17:23:27.994Z,10.63
2023-03-02T17:26:31.052Z,8.93
2023-03-02T17:29:34.187Z,8.27
2023-03-02T17:32:37.211Z,8.03
2023-03-02T17:35:40.328Z,12.07
2023-03-02T17:38:44.676Z,10.33
2023-03-02T17:41:47.673Z,7.87
2023-03-02T17:44:50.758Z,9.20
2023-03-02T17:47:55.558Z,7.97
2023-03-02T17:50:58.555Z,10.70
2023-03-02T17:54:03.195Z,9.13
2023-03-02T17:57:07.546Z,11.03
2023-03-02T18:00:14.172Z,11.80
2023-03-02T18:03:17.225Z,10.60
2023-03-02T18:06:20.717Z,11.40
2023-03-02T18:09:25.105Z,10.63
2023-03-02T18:12:28.193Z,11.63
2023-03-02T18:15:31.445Z,9.23
2023-03-02T18:18:35.096Z,11.20
2023-03-02T18:21:40.073Z,11.47
2023-03-02T18:24:44.436Z,10.17
2023-03-02T18:27:47.562Z,11.60
2023-03-02T18:30:50.622Z,11.10
2023-03-02T18:33:53.571Z,11.07
2023-03-02T18:36:56.626Z,10.13
2023-03-02T18:40:01.872Z,10.73
2023-03-02T18:43:04.944Z,12.47
2023-03-02T18:46:10.392Z,13.07
2023-03-02T18:49:13.396Z,12.57
2023-03-02T18:52:16.594Z,9.77
2023-03-02T18:55:21.154Z,11.97
2023-03-02T18:58:25.793Z,11.47
2023-03-02T19:01:32.022Z,10.70
2023-03-02T19:04:35.324Z,12.87
2023-03-02T19:07:38.326Z,9.97
2023-03-02T19:10:42.800Z,11.73
2023-03-02T19:13:45.749Z,11.07
2023-03-02T19:16:49.186Z,10.10
2023-03-02T19:19:52.415Z,12.17
2023-03-02T19:22:55.602Z,12.57
2023-03-02T19:26:00.137Z,10.30
2023-03-02T19:29:03.187Z,10.50
2023-03-02T19:32:07.870Z,13.50
2023-03-02T19:35:12.650Z,12.37
2023-03-02T19:38:15.736Z,12.07
2023-03-02T19:41:21.936Z,11.73
2023-03-02T19:44:25.654Z,12.37
2023-03-02T19:47:29.721Z,11.90
2023-03-02T19:50:32.932Z,11.97
2023-03-02T19:53:37.358Z,11.37
2023-03-02T19:56:43.471Z,13.13
2023-03-02T19:59:46.634Z,14.13
2023-03-02T20:02:50.034Z,13.33
2023-03-02T20:05:55.156Z,12.87
2023-03-02T20:08:58.976Z,12.37
2023-03-02T20:12:05.908Z,13.13
2023-03-02T20:15:09.577Z,13.53
2023-03-02T20:18:16.039Z,12.20
2023-03-02T20:21:19.794Z,14.20
2023-03-02T20:24:22.853Z,13.77
2023-03-02T20:27:27.294Z,13.97
2023-03-02T20:30:32.940Z,14.90
2023-03-02T20:33:40.734Z,13.27
2023-03-02T20:36:44.256Z,12.77
2023-03-02T20:39:49.598Z,13.60
2023-03-02T20:42:54.408Z,13.90
2023-03-02T20:45:58.442Z,14.80
2023-03-02T20:49:02.425Z,16.90
2023-03-02T20:52:06.452Z,16.67
2023-03-02T20:55:10.663Z,21.60
2023-03-02T20:58:15.410Z,21.83
2023-03-02T21:01:20.610Z,24.17
2023-03-02T21:04:23.709Z,22.07
2023-03-02T21:07:26.947Z,24.57
2023-03-02T21:10:33.630Z,18.87
2023-03-02T21:13:39.093Z,17.30
2023-03-02T21:16:43.704Z,19.50
2023-03-02T21:19:46.882Z,17.03
2023-03-02T21:22:49.959Z,14.90
2023-03-02T21:25:52.900Z,20.23
2023-03-02T21:28:57.414Z,23.90
2023-03-02T21:32:00.426Z,29.90
2023-03-02T21:35:03.488Z,22.13
2023-03-02T21:38:07.254Z,18.97
2023-03-02T21:41:10.485Z,23.83
2023-03-02T21:44:14.861Z,19.27
2023-03-02T21:47:17.835Z,23.10
2023-03-02T21:50:26.372Z,21.87
2023-03-02T21:53:29.463Z,20.30
2023-03-02T21:56:32.941Z,19.87
2023-03-02T21:59:37.383Z,17.67
2023-03-02T22:02:40.421Z,17.47
2023-03-02T22:05:43.487Z,19.70
2023-03-02T22:08:46.918Z,20.87
2023-03-02T22:11:51.095Z,22.73
2023-03-02T22:14:56.373Z,19.83
2023-03-02T22:18:00.660Z,21.87
2023-03-02T22:21:21.974Z,19.97
2023-03-02T22:24:27.433Z,18.07
2023-03-02T22:27:34.217Z,21.00
2023-03-02T22:30:38.474Z,19.53
2023-03-02T22:33:41.509Z,20.80
2023-03-02T22:36:44.530Z,19.67
2023-03-02T22:39:48.092Z,20.47
2023-03-02T22:42:52.070Z,22.77
2023-03-02T22:45:59.962Z,19.17
2023-03-02T22:49:11.566Z,19.33
2023-03-02T22:52:17.329Z,22.40
2023-03-02T22:55:35.555Z,23.30
2023-03-02T22:58:46.332Z,24.10
2023-03-02T23:01:51.369Z,22.10
2023-03-02T23:04:54.412Z,23.30
2023-03-02T23:08:19.550Z,24.83
2023-03-02T23:11:24.177Z,26.70
2023-03-02T23:14:29.295Z,26.97
2023-03-02T23:17:37.212Z,24.80
2023-03-02T23:20:40.202Z,28.73
2023-03-02T23:23:43.183Z,21.37
2023-03-02T23:26:46.212Z,29.43
2023-03-02T23:29:49.154Z,24.63
2023-03-02T23:32:53.806Z,26.13
2023-03-02T23:35:56.951Z,22.93
2023-03-02T23:39:00.056Z,23.03
2023-03-02T23:42:03.115Z,25.23
2023-03-02T23:45:07.062Z,28.07
2023-03-02T23:48:11.423Z,23.83
2023-03-02T23:51:14.433Z,25.53
2023-03-02T23:54:17.421Z,30.40
2023-03-02T23:57:20.399Z,28.07
